LHSM/SOB METAR and TAF weather

Enter ICAO airport designator
Station Type Date Time Source
LHSM METAR 2019/05/23 18:45 UTC NOAA

LHSM 231845Z AUTO 34003KT 300V010 CAVOK 14/08 Q1016


Station Type Date Time Source
LHSM Decoded METAR 2019/05/23 18:45 UTC NOAA

Station name not available
May 23, 2019 - 02:45 PM EDT / 2019.05.23 1845 UTC
Wind: from the NNW (340 degrees) at 3 MPH (3 KT) (direction variable):0
Visibility: greater than 7 mile(s):0
Temperature: 57 F (14 C)
Dew Point: 46 F (8 C)
Relative Humidity: 67%
Pressure (altimeter): 30.00 in. Hg (1016 hPa)
ob: LHSM 231845Z AUTO 34003KT 300V010 CAVOK 14/08 Q1016
cycle: 19

Station Type Date Time Source
LHSM TAF UTC NOAA

Error!

Example: see airport list